Time;durP1;ratioP1;P1;durP2;ratioP2;P2;SDS_P1;SDS_P2;PMS_P1;PMS_P2;Temp;Humidity;BMP_temperature;BMP_pressure;BME280_temperature;BME280_humidity;BME280_pressure;Samples;Min_cycle;Max_cycle;Signal;HPM_P1;HPM_P2
2023/07/28 00:02:01;;;;;;;3.60;3.00;;;17.20;99.90;;;;;;5128373;27;20209;-82
2023/07/28 00:04:27;;;;;;;3.83;3.10;;;17.20;99.90;;;;;;5108573;27;20707;-83
2023/07/28 00:06:54;;;;;;;3.57;3.37;;;17.20;99.90;;;;;;5113514;27;20263;-81
2023/07/28 00:09:22;;;;;;;4.43;3.50;;;17.20;99.90;;;;;;5128213;27;20205;-80
2023/07/28 00:11:49;;;;;;;3.60;3.40;;;17.20;99.90;;;;;;5128389;27;20220;-80
2023/07/28 00:14:18;;;;;;;3.90;3.60;;;17.20;99.90;;;;;;5110159;27;20210;-80
2023/07/28 00:16:44;;;;;;;3.80;3.50;;;17.10;99.90;;;;;;5107773;28;20217;-81
2023/07/28 00:19:11;;;;;;;4.17;3.87;;;17.10;99.90;;;;;;5107849;28;20218;-82
2023/07/28 00:21:38;;;;;;;4.10;3.80;;;17.00;99.90;;;;;;5111855;27;20221;-81
2023/07/28 00:24:06;;;;;;;4.67;4.27;;;17.00;99.90;;;;;;5117308;27;20228;-81
2023/07/28 00:26:33;;;;;;;6.50;4.20;;;17.10;99.90;;;;;;5107874;28;20292;-81
2023/07/28 00:28:59;;;;;;;3.97;3.67;;;17.00;99.90;;;;;;5107366;28;20212;-82
2023/07/28 00:31:28;;;;;;;4.00;3.70;;;17.00;99.90;;;;;;5126214;27;20240;-81
2023/07/28 00:33:54;;;;;;;4.10;3.77;;;17.00;99.90;;;;;;5128560;27;20278;-81
2023/07/28 00:36:21;;;;;;;4.57;4.27;;;17.00;99.90;;;;;;5112848;27;20876;-81
2023/07/28 00:38:48;;;;;;;6.87;3.50;;;17.10;99.90;;;;;;5127731;27;20950;-81
2023/07/28 00:41:15;;;;;;;4.03;3.43;;;17.10;99.90;;;;;;5127697;27;20202;-81
2023/07/28 00:43:42;;;;;;;3.70;3.43;;;17.00;99.90;;;;;;5126478;27;20202;-82
2023/07/28 00:46:10;;;;;;;3.50;3.20;;;17.10;99.90;;;;;;5127840;27;20233;-81
2023/07/28 00:48:39;;;;;;;3.33;3.03;;;17.10;99.90;;;;;;5126277;27;20288;-82
2023/07/28 00:51:07;;;;;;;3.60;3.30;;;17.10;99.90;;;;;;5111466;27;20201;-81
2023/07/28 00:53:34;;;;;;;3.40;3.10;;;17.00;99.90;;;;;;5107475;28;20202;-81
2023/07/28 00:56:02;;;;;;;3.50;3.23;;;17.10;99.90;;;;;;5107672;27;20205;-82
2023/07/28 00:58:31;;;;;;;3.40;3.17;;;17.10;99.90;;;;;;5122455;27;20237;-82
2023/07/28 01:00:58;;;;;;;3.23;3.03;;;17.10;99.90;;;;;;5121828;27;20290;-82
2023/07/28 01:03:25;;;;;;;3.13;2.90;;;17.10;99.90;;;;;;5107015;27;20224;-81
2023/07/28 01:05:59;;;;;;;2.70;2.60;;;17.10;99.90;;;;;;5107040;28;20214;-81
2023/07/28 01:08:33;;;;;;;5.97;2.87;;;17.20;99.90;;;;;;5107209;28;20202;-81
2023/07/28 01:11:00;;;;;;;5.87;3.23;;;17.10;99.90;;;;;;5112089;27;20284;-81
2023/07/28 01:13:28;;;;;;;3.50;3.17;;;17.10;99.90;;;;;;5115352;27;20289;-81
2023/07/28 01:15:54;;;;;;;3.30;3.00;;;17.10;99.90;;;;;;5106625;28;20210;-81
2023/07/28 01:18:21;;;;;;;3.23;2.87;;;17.20;99.90;;;;;;5106545;28;20238;-81
2023/07/28 01:20:55;;;;;;;4.20;3.30;;;17.20;99.90;;;;;;5143134;27;20273;-81
2023/07/28 01:23:38;;;;;;;3.47;3.20;;;17.20;99.90;;;;;;5126805;27;20588;-79
2023/07/28 01:26:08;;;;;;;3.70;3.33;;;17.10;99.90;;;;;;5121645;27;20655;-79
2023/07/28 01:28:38;;;;;;;3.20;3.00;;;17.10;99.90;;;;;;5126353;27;20644;-79
2023/07/28 01:31:06;;;;;;;4.30;3.23;;;17.10;99.90;;;;;;5113017;27;20292;-79
2023/07/28 01:33:33;;;;;;;4.50;3.30;;;17.20;99.90;;;;;;5126756;27;20561;-79
2023/07/28 01:36:01;;;;;;;4.33;3.93;;;17.20;99.90;;;;;;5126486;27;20209;-79
2023/07/28 01:38:28;;;;;;;3.87;3.57;;;17.20;99.90;;;;;;5126650;27;20232;-85
2023/07/28 01:40:55;;;;;;;3.43;3.23;;;17.10;99.90;;;;;;5108047;27;20204;-84
2023/07/28 01:43:22;;;;;;;3.80;3.50;;;17.10;99.90;;;;;;5105619;28;20216;-85
2023/07/28 01:45:50;;;;;;;5.03;3.30;;;17.20;99.90;;;;;;5106166;28;20623;-84
2023/07/28 01:48:17;;;;;;;4.63;3.70;;;17.10;99.90;;;;;;5116833;27;20201;-84
2023/07/28 01:50:43;;;;;;;5.17;3.80;;;17.10;99.90;;;;;;5119727;27;20228;-78
2023/07/28 01:53:10;;;;;;;6.77;4.00;;;17.20;99.90;;;;;;5106002;28;20260;-78
2023/07/28 01:55:37;;;;;;;5.90;4.50;;;17.10;99.90;;;;;;5105698;28;21017;-78
2023/07/28 01:58:04;;;;;;;4.97;4.47;;;17.10;99.90;;;;;;5105495;28;20232;-79
2023/07/28 02:00:31;;;;;;;6.13;4.70;;;17.20;99.90;;;;;;5120615;27;20243;-81
2023/07/28 02:03:01;;;;;;;5.17;4.77;;;17.10;99.90;;;;;;5126559;27;20248;-81
2023/07/28 02:05:28;;;;;;;7.10;5.40;;;17.20;99.90;;;;;;5127246;27;20196;-78
2023/07/28 02:07:55;;;;;;;6.03;5.43;;;17.10;99.90;;;;;;5112099;27;20216;-78
2023/07/28 02:10:23;;;;;;;7.03;5.70;;;17.20;99.90;;;;;;5107017;28;20198;-81
2023/07/28 02:12:50;;;;;;;6.83;5.77;;;17.20;99.90;;;;;;5107181;28;20220;-82
2023/07/28 02:15:17;;;;;;;7.47;5.37;;;17.20;99.90;;;;;;5117529;27;20295;-82
2023/07/28 02:17:44;;;;;;;8.67;6.10;;;17.20;99.90;;;;;;5126482;28;20317;-82
2023/07/28 02:20:15;;;;;;;7.83;6.27;;;17.30;99.90;;;;;;5115385;27;20859;-82
2023/07/28 02:22:42;;;;;;;10.80;6.63;;;17.20;99.90;;;;;;5126737;28;20213;-81
2023/07/28 02:25:09;;;;;;;7.83;6.60;;;17.30;99.90;;;;;;5126853;28;20741;-81
2023/07/28 02:27:36;;;;;;;6.90;6.20;;;17.30;99.90;;;;;;5126611;28;20567;-81
2023/07/28 02:30:04;;;;;;;9.67;6.97;;;17.30;99.90;;;;;;5115989;28;20293;-80
2023/07/28 02:32:31;;;;;;;7.90;6.83;;;17.20;99.90;;;;;;5105704;28;20675;-78
2023/07/28 02:34:58;;;;;;;11.07;7.00;;;17.30;99.90;;;;;;5105706;28;20298;-76
2023/07/28 02:37:26;;;;;;;7.30;6.60;;;17.30;99.90;;;;;;5107266;28;20939;-78
2023/07/28 02:39:53;;;;;;;8.57;7.20;;;17.30;99.90;;;;;;5125666;28;20197;-78
2023/07/28 02:42:20;;;;;;;7.60;6.87;;;17.30;99.90;;;;;;5126172;28;20213;-80
2023/07/28 02:44:47;;;;;;;10.47;7.13;;;17.30;99.90;;;;;;5126303;28;20320;-78
2023/07/28 02:47:14;;;;;;;9.33;7.30;;;17.30;99.90;;;;;;5125903;28;20237;-78
2023/07/28 02:49:42;;;;;;;7.73;6.83;;;17.30;99.90;;;;;;5129118;27;20308;-79
2023/07/28 02:52:09;;;;;;;11.43;7.10;;;17.40;99.90;;;;;;5106488;28;20205;-78
2023/07/28 02:54:37;;;;;;;8.70;7.67;;;17.30;99.90;;;;;;5108905;27;20812;-79
2023/07/28 02:57:05;;;;;;;8.23;7.43;;;17.30;99.90;;;;;;5125569;28;20341;-79
2023/07/28 02:59:32;;;;;;;9.43;7.70;;;17.30;99.90;;;;;;5120608;28;20686;-80
2023/07/28 03:01:58;;;;;;;8.50;7.03;;;17.30;99.90;;;;;;5107591;28;20206;-80
2023/07/28 03:04:25;;;;;;;9.77;7.60;;;17.30;99.90;;;;;;5108794;28;20300;-77
2023/07/28 03:06:52;;;;;;;9.13;7.90;;;17.40;99.90;;;;;;5109127;28;20210;-81
2023/07/28 03:09:19;;;;;;;10.07;8.10;;;17.30;99.90;;;;;;5112078;27;20728;-82
2023/07/28 03:11:48;;;;;;;11.20;8.00;;;17.40;99.90;;;;;;5129001;27;20210;-81
2023/07/28 03:14:15;;;;;;;12.77;8.60;;;17.30;99.90;;;;;;5128804;27;20641;-82
2023/07/28 03:16:42;;;;;;;10.53;7.93;;;17.40;99.90;;;;;;5126616;27;20209;-83
2023/07/28 03:19:09;;;;;;;12.30;8.13;;;17.40;99.90;;;;;;5128790;27;20229;-83
2023/07/28 03:21:36;;;;;;;11.17;7.67;;;17.40;99.90;;;;;;5115782;27;20204;-84
2023/07/28 03:24:03;;;;;;;12.40;7.60;;;17.40;99.90;;;;;;5127570;27;20237;-82
2023/07/28 03:26:30;;;;;;;10.73;7.43;;;17.30;99.90;;;;;;5128107;27;20312;-82
2023/07/28 03:28:59;;;;;;;9.57;7.50;;;17.30;99.90;;;;;;5126602;27;20210;-82
2023/07/28 03:31:25;;;;;;;9.50;7.17;;;17.40;99.90;;;;;;5119698;27;20753;-82
2023/07/28 03:33:52;;;;;;;12.57;8.23;;;17.30;99.90;;;;;;5122888;27;20292;-83
2023/07/28 03:36:20;;;;;;;11.97;7.67;;;17.40;99.90;;;;;;5110752;27;20202;-83
2023/07/28 03:38:47;;;;;;;12.13;8.53;;;17.30;99.90;;;;;;5117525;27;21018;-82
2023/07/28 03:41:14;;;;;;;9.03;8.03;;;17.40;99.90;;;;;;5119263;27;20321;-82
2023/07/28 03:43:42;;;;;;;9.90;8.33;;;17.40;99.90;;;;;;5118989;27;20747;-84
2023/07/28 03:46:10;;;;;;;12.00;7.60;;;17.40;99.90;;;;;;5120603;27;20879;-83
2023/07/28 03:48:37;;;;;;;10.93;8.87;;;17.40;99.90;;;;;;5110057;27;20309;-82
2023/07/28 03:51:04;;;;;;;12.77;8.20;;;17.40;99.90;;;;;;5133420;27;20208;-83
2023/07/28 03:53:31;;;;;;;12.13;8.37;;;17.40;99.90;;;;;;5125584;27;20213;-82
2023/07/28 03:55:58;;;;;;;11.83;8.60;;;17.40;99.90;;;;;;5126930;27;20215;-83
2023/07/28 03:58:26;;;;;;;15.53;8.67;;;17.40;99.90;;;;;;5126907;27;20231;-83
2023/07/28 04:00:53;;;;;;;9.53;8.20;;;17.40;99.90;;;;;;5122585;27;20198;-83
2023/07/28 04:03:22;;;;;;;10.23;8.73;;;17.30;99.90;;;;;;5148296;27;20220;-84
2023/07/28 04:05:50;;;;;;;13.43;9.13;;;17.40;99.90;;;;;;5116972;27;20202;-83
2023/07/28 04:08:17;;;;;;;10.53;8.60;;;17.40;99.90;;;;;;5123343;27;20548;-83
2023/07/28 04:10:44;;;;;;;9.63;8.43;;;17.40;99.90;;;;;;5116592;27;20304;-83
2023/07/28 04:13:11;;;;;;;11.93;8.63;;;17.30;99.90;;;;;;5116987;27;20198;-83
2023/07/28 04:15:38;;;;;;;12.17;8.40;;;17.40;99.90;;;;;;5116763;27;20194;-83
2023/07/28 04:18:05;;;;;;;11.93;8.93;;;17.40;99.90;;;;;;5118379;27;20660;-83
2023/07/28 04:20:33;;;;;;;11.47;9.77;;;17.40;99.90;;;;;;5118071;27;20208;-83
2023/07/28 04:23:00;;;;;;;11.87;9.13;;;17.40;99.90;;;;;;5115639;27;20217;-83
2023/07/28 04:25:27;;;;;;;10.40;9.30;;;17.40;99.90;;;;;;5115485;27;20205;-83
2023/07/28 04:27:54;;;;;;;11.13;9.50;;;17.40;99.90;;;;;;5118162;27;20284;-83
2023/07/28 04:30:21;;;;;;;11.70;9.43;;;17.50;99.90;;;;;;5118979;27;20202;-84
2023/07/28 04:32:48;;;;;;;13.07;9.60;;;17.40;99.90;;;;;;5114554;27;20190;-83
2023/07/28 04:35:15;;;;;;;12.87;9.57;;;17.40;99.90;;;;;;5117767;27;20558;-83
2023/07/28 04:37:43;;;;;;;10.70;9.60;;;17.50;99.90;;;;;;5118749;27;20205;-83
2023/07/28 04:40:11;;;;;;;10.57;9.50;;;17.50;99.90;;;;;;5109703;27;20286;-83
2023/07/28 04:42:38;;;;;;;9.47;8.57;;;17.50;99.90;;;;;;5122363;27;20198;-83
2023/07/28 04:45:05;;;;;;;11.90;10.27;;;17.40;99.90;;;;;;5119356;27;20304;-83
2023/07/28 04:47:32;;;;;;;10.67;9.57;;;17.40;99.90;;;;;;5118631;27;20202;-83
2023/07/28 04:49:59;;;;;;;14.63;9.93;;;17.40;99.90;;;;;;5119629;27;20289;-83
2023/07/28 04:52:26;;;;;;;10.60;9.50;;;17.50;99.90;;;;;;5115363;27;20278;-83
2023/07/28 04:54:54;;;;;;;13.33;9.43;;;17.50;99.90;;;;;;5114683;27;20198;-83
2023/07/28 04:57:21;;;;;;;13.83;10.43;;;17.50;99.90;;;;;;5120755;27;20223;-83
2023/07/28 04:59:48;;;;;;;11.83;10.03;;;17.50;99.90;;;;;;5114352;27;20234;-83
2023/07/28 05:02:18;;;;;;;10.97;9.87;;;17.40;99.90;;;;;;5114105;27;20202;-81
2023/07/28 05:04:45;;;;;;;11.90;10.20;;;17.50;99.90;;;;;;5115589;27;20205;-83
2023/07/28 05:07:11;;;;;;;11.47;10.17;;;17.50;99.90;;;;;;5118431;27;20295;-83
2023/07/28 05:09:38;;;;;;;12.80;9.97;;;17.50;99.90;;;;;;5112837;27;20657;-83
2023/07/28 05:12:08;;;;;;;11.07;10.00;;;17.60;99.90;;;;;;5117877;27;20205;-83
2023/07/28 05:14:35;;;;;;;10.87;9.57;;;17.60;99.90;;;;;;5117627;27;20198;-83
2023/07/28 05:17:02;;;;;;;12.57;9.73;;;17.60;99.90;;;;;;5114474;27;20715;-83
2023/07/28 05:19:29;;;;;;;12.03;9.67;;;17.50;99.90;;;;;;5117202;27;20739;-83
2023/07/28 05:21:56;;;;;;;12.67;9.70;;;17.60;99.90;;;;;;5115797;27;20734;-83
2023/07/28 05:24:23;;;;;;;10.27;9.23;;;17.60;99.90;;;;;;5115584;27;20197;-83
2023/07/28 05:26:50;;;;;;;11.90;9.50;;;17.60;99.90;;;;;;5117735;27;20313;-83
2023/07/28 05:29:18;;;;;;;10.53;9.00;;;17.60;99.90;;;;;;5117811;27;20806;-83
2023/07/28 05:31:45;;;;;;;9.63;8.67;;;17.60;99.90;;;;;;5122698;27;20286;-82
2023/07/28 05:34:12;;;;;;;9.80;8.87;;;17.60;99.90;;;;;;5116720;27;20302;-83
2023/07/28 05:36:39;;;;;;;10.47;9.03;;;17.60;99.90;;;;;;5108968;27;20725;-83
2023/07/28 05:39:06;;;;;;;9.37;8.30;;;17.70;99.90;;;;;;5114289;27;20266;-83
2023/07/28 05:41:33;;;;;;;9.67;8.87;;;17.70;99.90;;;;;;5116281;27;20194;-83
2023/07/28 05:44:00;;;;;;;9.37;8.47;;;17.60;99.90;;;;;;5115575;27;20206;-83
2023/07/28 05:46:28;;;;;;;10.73;8.60;;;17.70;99.90;;;;;;5114784;27;20661;-83
2023/07/28 05:48:55;;;;;;;9.27;7.90;;;17.70;99.90;;;;;;5119241;27;20644;-83
2023/07/28 05:51:22;;;;;;;9.43;7.87;;;17.70;99.90;;;;;;5116157;27;20202;-83
2023/07/28 05:53:50;;;;;;;9.20;8.27;;;17.70;99.90;;;;;;5115087;27;20982;-83
2023/07/28 05:56:17;;;;;;;10.17;8.07;;;17.70;99.90;;;;;;5116789;27;20229;-83
2023/07/28 05:58:45;;;;;;;9.03;8.07;;;17.70;99.90;;;;;;5115402;27;20324;-82
2023/07/28 06:01:12;;;;;;;9.10;8.20;;;17.70;99.90;;;;;;5117183;27;20973;-83
2023/07/28 06:03:40;;;;;;;9.17;8.27;;;17.70;99.90;;;;;;5114370;27;20285;-83
2023/07/28 06:06:07;;;;;;;8.10;7.43;;;17.70;99.90;;;;;;5114287;27;20194;-83
2023/07/28 06:08:34;;;;;;;7.87;7.27;;;17.70;99.90;;;;;;5117336;27;20434;-83
2023/07/28 06:11:03;;;;;;;8.47;7.70;;;17.70;99.90;;;;;;5114003;27;20282;-83
2023/07/28 06:13:30;;;;;;;9.37;7.90;;;17.70;99.90;;;;;;5113043;27;20301;-84
2023/07/28 06:15:58;;;;;;;8.87;8.03;;;17.70;99.90;;;;;;5114607;28;20217;-83
2023/07/28 06:18:25;;;;;;;8.47;7.70;;;17.80;99.90;;;;;;5116361;28;20193;-83
2023/07/28 06:20:53;;;;;;;8.33;7.63;;;17.70;99.90;;;;;;5114895;28;20313;-84
2023/07/28 06:23:20;;;;;;;7.93;7.23;;;17.80;99.90;;;;;;5113661;28;20300;-84
2023/07/28 06:25:47;;;;;;;8.20;7.53;;;17.80;99.90;;;;;;5108097;28;20311;-82
2023/07/28 06:28:14;;;;;;;8.20;6.90;;;17.80;99.90;;;;;;5105273;28;20943;-83
2023/07/28 06:30:41;;;;;;;7.67;7.07;;;17.90;99.90;;;;;;5105231;28;20747;-82
2023/07/28 06:33:08;;;;;;;8.00;7.40;;;17.90;99.90;;;;;;5116451;28;20610;-83
2023/07/28 06:35:36;;;;;;;7.13;6.63;;;17.90;99.90;;;;;;5125943;27;20289;-82
2023/07/28 06:38:04;;;;;;;8.10;7.33;;;17.90;99.90;;;;;;5124703;27;20237;-83
2023/07/28 06:40:31;;;;;;;7.60;6.87;;;18.00;99.90;;;;;;5118838;27;20316;-82
2023/07/28 06:42:58;;;;;;;7.10;6.60;;;18.00;99.90;;;;;;5123321;27;20278;-83
2023/07/28 06:45:25;;;;;;;6.93;6.30;;;18.00;99.90;;;;;;5121418;27;20243;-83
2023/07/28 06:47:52;;;;;;;7.37;6.77;;;18.00;99.90;;;;;;5124304;27;20288;-82
2023/07/28 06:50:19;;;;;;;6.70;6.10;;;18.00;99.90;;;;;;5120886;27;20198;-83
2023/07/28 06:52:47;;;;;;;7.53;6.93;;;18.00;99.90;;;;;;5121736;27;20266;-83
2023/07/28 06:55:16;;;;;;;7.07;6.47;;;18.10;99.90;;;;;;5120081;27;20222;-82
2023/07/28 06:57:43;;;;;;;7.00;6.30;;;18.10;99.90;;;;;;5118439;27;20198;-82
2023/07/28 07:00:11;;;;;;;6.70;6.10;;;18.20;99.90;;;;;;5118782;27;20283;-83
2023/07/28 07:02:38;;;;;;;5.90;5.40;;;18.20;99.90;;;;;;5117225;27;20289;-83
2023/07/28 07:05:06;;;;;;;5.60;5.30;;;18.20;99.90;;;;;;5120466;27;20240;-82
2023/07/28 07:07:33;;;;;;;5.77;5.33;;;18.30;99.90;;;;;;5117855;27;20189;-83
2023/07/28 07:10:00;;;;;;;5.90;5.40;;;18.40;99.90;;;;;;5127549;27;20205;-82
2023/07/28 07:12:28;;;;;;;6.40;5.90;;;18.40;99.90;;;;;;5126466;27;20202;-83
2023/07/28 07:14:55;;;;;;;6.13;5.33;;;18.40;99.90;;;;;;5128088;27;20280;-83
2023/07/28 07:17:22;;;;;;;6.23;4.83;;;18.50;99.90;;;;;;5113391;27;20269;-82
2023/07/28 07:19:49;;;;;;;4.93;4.57;;;18.50;99.90;;;;;;5115637;27;20333;-82
2023/07/28 07:22:16;;;;;;;5.00;4.50;;;18.70;99.90;;;;;;5111138;27;20325;-82
2023/07/28 07:24:43;;;;;;;4.50;4.20;;;18.80;99.90;;;;;;5111753;27;20533;-83
2023/07/28 07:27:10;;;;;;;3.80;3.60;;;18.80;99.90;;;;;;5110976;27;20194;-83
2023/07/28 07:29:39;;;;;;;3.00;2.90;;;18.90;99.90;;;;;;5114760;27;20209;-83
2023/07/28 07:32:07;;;;;;;3.60;3.13;;;19.00;99.90;;;;;;5123231;27;20212;-83
2023/07/28 07:34:36;;;;;;;3.60;2.90;;;19.00;99.90;;;;;;5123255;27;20276;-83
2023/07/28 07:37:04;;;;;;;2.93;2.83;;;19.00;99.90;;;;;;5119291;27;20274;-82
2023/07/28 07:39:30;;;;;;;2.50;2.40;;;19.00;99.90;;;;;;5118072;27;20217;-82
2023/07/28 07:41:58;;;;;;;2.70;2.50;;;19.10;99.90;;;;;;5123224;27;20212;-82
2023/07/28 07:44:26;;;;;;;2.30;2.20;;;19.10;99.90;;;;;;5119958;27;20778;-82
2023/07/28 07:46:54;;;;;;;4.00;2.20;;;19.10;99.90;;;;;;5126502;27;20292;-83
2023/07/28 07:49:21;;;;;;;2.93;2.57;;;19.10;99.90;;;;;;5118574;27;20720;-82
2023/07/28 07:51:48;;;;;;;2.57;2.43;;;19.10;99.90;;;;;;5121454;27;20217;-82
2023/07/28 07:54:18;;;;;;;2.33;2.23;;;19.10;99.90;;;;;;5116459;27;20317;-83
2023/07/28 07:56:46;;;;;;;2.27;2.17;;;19.10;99.90;;;;;;5118001;27;20201;-83
2023/07/28 07:59:13;;;;;;;2.37;2.20;;;19.20;99.90;;;;;;5118163;27;20241;-83
2023/07/28 08:01:40;;;;;;;2.10;2.00;;;19.30;99.90;;;;;;5116156;27;20203;-83
2023/07/28 08:04:08;;;;;;;2.10;2.00;;;19.40;99.90;;;;;;5117126;27;20299;-83
2023/07/28 08:06:35;;;;;;;2.30;2.07;;;19.50;99.90;;;;;;5117535;27;20202;-83
2023/07/28 08:09:02;;;;;;;2.40;1.80;;;19.70;99.90;;;;;;5121313;27;20302;-82
2023/07/28 08:11:29;;;;;;;1.93;1.80;;;19.80;99.90;;;;;;5114062;27;20203;-83
2023/07/28 08:13:56;;;;;;;3.00;2.10;;;19.80;99.90;;;;;;5119108;27;20676;-82
2023/07/28 08:16:23;;;;;;;2.70;1.90;;;19.70;99.90;;;;;;5110640;27;20577;-83
2023/07/28 08:18:50;;;;;;;3.03;1.70;;;19.70;99.90;;;;;;5113606;27;20226;-83
2023/07/28 08:21:18;;;;;;;1.73;1.70;;;19.70;99.90;;;;;;5118399;27;21027;-82
2023/07/28 08:23:45;;;;;;;1.87;1.83;;;19.70;99.90;;;;;;5113804;27;20297;-82
2023/07/28 08:26:12;;;;;;;1.60;1.60;;;19.60;99.90;;;;;;5120495;27;20241;-83
2023/07/28 08:28:39;;;;;;;2.00;1.90;;;19.60;99.90;;;;;;5118455;27;20293;-82
2023/07/28 08:31:05;;;;;;;2.17;1.53;;;19.60;99.90;;;;;;5118235;27;20197;-83
2023/07/28 08:33:32;;;;;;;1.60;1.50;;;19.60;99.90;;;;;;5115865;27;20198;-82
2023/07/28 08:35:59;;;;;;;1.80;1.70;;;19.60;99.90;;;;;;5116815;27;20289;-83
2023/07/28 08:38:27;;;;;;;1.67;1.57;;;19.60;99.90;;;;;;5118593;27;20296;-82
2023/07/28 08:40:54;;;;;;;1.73;1.70;;;19.50;99.90;;;;;;5118108;27;20226;-84
2023/07/28 08:43:21;;;;;;;2.10;2.00;;;19.70;99.90;;;;;;5117541;27;20810;-83
2023/07/28 08:45:48;;;;;;;1.80;1.80;;;19.70;99.90;;;;;;5117146;27;20767;-83
2023/07/28 08:48:15;;;;;;;1.67;1.57;;;19.80;99.90;;;;;;5115870;27;20308;-83
2023/07/28 08:50:42;;;;;;;1.73;1.63;;;19.80;99.90;;;;;;5120702;27;20318;-83
2023/07/28 08:53:09;;;;;;;2.90;1.80;;;19.80;99.90;;;;;;5114679;27;20204;-83
2023/07/28 08:55:38;;;;;;;1.73;1.73;;;19.80;99.90;;;;;;5114914;27;20288;-82
2023/07/28 08:58:18;;;;;;;1.80;1.70;;;19.80;99.90;;;;;;5117607;27;20281;-83
2023/07/28 09:00:48;;;;;;;2.93;1.70;;;19.80;99.90;;;;;;5122552;27;20248;-83
2023/07/28 09:03:16;;;;;;;1.87;1.77;;;19.70;99.90;;;;;;5126643;27;20205;-82
2023/07/28 09:05:43;;;;;;;1.60;1.60;;;19.70;99.90;;;;;;5127065;27;20262;-82
2023/07/28 09:08:10;;;;;;;1.87;1.60;;;19.70;99.90;;;;;;5125680;27;20229;-83
2023/07/28 09:10:46;;;;;;;1.67;1.60;;;19.70;99.90;;;;;;5115260;27;20675;-83
2023/07/28 09:13:14;;;;;;;3.03;1.53;;;19.70;99.90;;;;;;5108942;27;20289;-83
2023/07/28 09:15:41;;;;;;;1.70;1.70;;;19.70;99.90;;;;;;5117467;27;20238;-83
2023/07/28 09:18:12;;;;;;;1.70;1.67;;;19.70;99.90;;;;;;5120998;27;20209;-82
2023/07/28 09:20:41;;;;;;;1.90;1.80;;;19.70;99.90;;;;;;5145637;27;20256;-82
2023/07/28 09:23:09;;;;;;;1.90;1.80;;;19.90;99.90;;;;;;5147452;27;20403;-83
2023/07/28 09:25:37;;;;;;;1.60;1.60;;;20.00;99.90;;;;;;5128152;27;20202;-83
2023/07/28 09:28:06;;;;;;;1.73;1.70;;;20.20;99.90;;;;;;5124103;27;20316;-82
2023/07/28 09:30:46;;;;;;;1.70;1.60;;;20.50;99.90;;;;;;5113659;27;20214;-83
2023/07/28 09:33:13;;;;;;;2.93;2.10;;;20.60;99.90;;;;;;5106453;28;20197;-82
2023/07/28 09:35:49;;;;;;;1.60;1.50;;;20.70;99.90;;;;;;5106778;28;20508;-83
2023/07/28 09:38:16;;;;;;;2.90;1.60;;;20.80;99.90;;;;;;5124632;27;20287;-83
2023/07/28 09:40:45;;;;;;;1.30;1.30;;;20.80;99.90;;;;;;5125802;27;20967;-83
2023/07/28 09:43:13;;;;;;;1.60;1.50;;;20.70;99.90;;;;;;5126027;27;20687;-83
2023/07/28 09:45:41;;;;;;;1.63;1.50;;;20.70;99.90;;;;;;5118812;27;20202;-83
2023/07/28 09:48:10;;;;;;;1.63;1.53;;;20.60;99.90;;;;;;5105835;28;20210;-82
2023/07/28 09:50:39;;;;;;;1.73;1.63;;;20.60;99.90;;;;;;5122914;27;20288;-83
2023/07/28 09:53:09;;;;;;;1.60;1.50;;;20.60;99.90;;;;;;5116538;27;20206;-83
2023/07/28 09:55:39;;;;;;;2.10;2.00;;;20.60;99.90;;;;;;5122011;27;20204;-83
2023/07/28 09:58:08;;;;;;;1.87;1.77;;;20.70;99.90;;;;;;5117510;27;20237;-83
2023/07/28 10:00:38;;;;;;;1.63;1.53;;;20.80;99.90;;;;;;5117894;27;20229;-83
2023/07/28 10:03:05;;;;;;;1.50;1.50;;;20.80;99.90;;;;;;5115791;27;20288;-83
2023/07/28 10:05:34;;;;;;;1.40;1.40;;;20.80;99.90;;;;;;5116752;27;20225;-83
2023/07/28 10:08:03;;;;;;;1.43;1.43;;;21.00;99.90;;;;;;5115585;27;20202;-83
2023/07/28 10:10:30;;;;;;;2.00;1.90;;;21.10;99.90;;;;;;5117248;27;20205;-83
2023/07/28 10:12:59;;;;;;;1.50;1.50;;;21.00;99.90;;;;;;5114268;27;20317;-84
2023/07/28 10:15:29;;;;;;;2.27;1.77;;;20.90;99.90;;;;;;5117421;27;20205;-82
2023/07/28 10:17:59;;;;;;;1.83;1.80;;;20.80;99.90;;;;;;5114414;28;20301;-83
2023/07/28 10:20:35;;;;;;;1.53;1.53;;;20.70;99.90;;;;;;5111268;27;20798;-84
2023/07/28 10:23:06;;;;;;;1.77;1.70;;;20.30;99.90;;;;;;5111994;28;20200;-83
2023/07/28 10:25:35;;;;;;;2.40;2.10;;;20.10;99.90;;;;;;5117265;28;20638;-83
2023/07/28 10:28:03;;;;;;;2.60;2.43;;;20.20;99.90;;;;;;5114193;28;20206;-84
2023/07/28 10:30:39;;;;;;;2.17;2.07;;;20.30;99.90;;;;;;5113940;28;20202;-83
2023/07/28 10:33:26;;;;;;;2.20;2.10;;;20.40;99.90;;;;;;5112871;28;20187;-83
2023/07/28 10:35:53;;;;;;;2.23;2.13;;;20.60;99.90;;;;;;5117610;28;20186;-83
2023/07/28 10:38:34;;;;;;;2.23;2.10;;;20.70;99.90;;;;;;5117389;28;20280;-84
2023/07/28 10:41:12;;;;;;;3.03;2.10;;;20.80;99.90;;;;;;5119474;27;20218;-83
2023/07/28 10:43:40;;;;;;;2.27;2.17;;;20.90;99.90;;;;;;5114348;28;20190;-84
2023/07/28 10:46:09;;;;;;;2.53;2.33;;;20.90;99.90;;;;;;5115379;28;20661;-83
2023/07/28 10:48:41;;;;;;;2.40;1.90;;;21.00;99.90;;;;;;5116063;27;20194;-82
2023/07/28 10:51:08;;;;;;;2.53;2.30;;;21.10;99.90;;;;;;5105045;28;20216;-83
2023/07/28 10:53:35;;;;;;;2.20;2.10;;;21.20;99.90;;;;;;5104778;28;20198;-83
2023/07/28 10:56:04;;;;;;;1.63;1.63;;;21.40;99.90;;;;;;5106520;28;20255;-83
2023/07/28 10:58:32;;;;;;;1.90;1.80;;;21.40;99.90;;;;;;5114480;28;20651;-83
2023/07/28 11:00:59;;;;;;;2.43;1.80;;;21.40;99.90;;;;;;5116120;28;20300;-82
2023/07/28 11:03:26;;;;;;;2.00;1.90;;;21.40;99.90;;;;;;5116000;28;20289;-83
2023/07/28 11:05:56;;;;;;;1.73;1.63;;;21.30;99.90;;;;;;5117196;28;20209;-83
2023/07/28 11:08:23;;;;;;;2.40;1.53;;;21.30;99.90;;;;;;5116216;28;20621;-83
2023/07/28 11:10:50;;;;;;;3.33;1.87;;;21.10;99.90;;;;;;5115683;28;20338;-83
2023/07/28 11:13:17;;;;;;;2.40;1.60;;;21.00;99.90;;;;;;5113776;28;20202;-84
2023/07/28 11:15:45;;;;;;;2.10;1.90;;;20.80;99.90;;;;;;5115472;28;20679;-83
2023/07/28 11:18:12;;;;;;;1.90;1.50;;;20.60;99.90;;;;;;5119093;28;20282;-84
2023/07/28 11:20:38;;;;;;;2.00;1.80;;;20.30;99.90;;;;;;5108565;27;20353;-84
2023/07/28 11:23:08;;;;;;;1.50;1.50;;;20.10;99.90;;;;;;5111428;28;20224;-84
2023/07/28 11:25:36;;;;;;;1.83;1.73;;;19.90;99.90;;;;;;5109591;28;20330;-84
2023/07/28 11:28:05;;;;;;;2.07;1.97;;;19.90;99.90;;;;;;5117486;27;20740;-84
2023/07/28 11:30:33;;;;;;;2.00;1.90;;;19.90;99.90;;;;;;5119707;27;20241;-83
2023/07/28 11:33:00;;;;;;;1.73;1.63;;;20.00;99.90;;;;;;5117605;27;20209;-83
2023/07/28 11:35:27;;;;;;;2.20;2.10;;;20.10;99.90;;;;;;5120838;27;20203;-84
2023/07/28 11:37:55;;;;;;;2.10;2.00;;;20.20;99.90;;;;;;5122999;27;20195;-84
2023/07/28 11:40:25;;;;;;;2.40;2.20;;;20.20;99.90;;;;;;5114149;27;20285;-84
2023/07/28 11:42:54;;;;;;;2.30;2.20;;;20.20;99.90;;;;;;5117359;27;20757;-83
2023/07/28 11:45:22;;;;;;;2.40;2.10;;;20.30;99.90;;;;;;5113466;27;20204;-83
2023/07/28 11:47:59;;;;;;;2.20;2.00;;;20.40;99.90;;;;;;5123227;27;20686;-83
2023/07/28 11:50:28;;;;;;;2.13;2.00;;;20.50;99.90;;;;;;5121205;27;20209;-83
2023/07/28 11:52:56;;;;;;;2.13;2.00;;;20.70;99.90;;;;;;5121971;27;20202;-82
2023/07/28 11:55:24;;;;;;;1.70;1.60;;;20.70;99.90;;;;;;5125717;27;20493;-83
2023/07/28 11:57:53;;;;;;;2.20;2.10;;;20.70;99.90;;;;;;5121932;27;20220;-83
2023/07/28 12:00:27;;;;;;;2.03;1.93;;;20.90;99.90;;;;;;5113368;27;20230;-83
2023/07/28 12:03:04;;;;;;;2.23;2.07;;;21.10;99.90;;;;;;5113923;27;20254;-82
2023/07/28 12:05:32;;;;;;;2.37;2.27;;;21.20;99.90;;;;;;5123381;27;20269;-82
2023/07/28 12:07:58;;;;;;;2.03;1.93;;;21.20;99.90;;;;;;5120304;27;20216;-82
2023/07/28 12:10:27;;;;;;;1.90;1.80;;;21.20;99.90;;;;;;5119785;27;20212;-83
2023/07/28 12:12:54;;;;;;;1.90;1.80;;;21.10;99.90;;;;;;5117376;27;20255;-82
2023/07/28 12:15:23;;;;;;;1.77;1.67;;;21.10;99.90;;;;;;5118657;27;20332;-82
2023/07/28 12:18:11;;;;;;;7.53;2.25;;;21.10;99.90;;;;;;5121555;27;20282;-82
2023/07/28 12:20:39;;;;;;;1.83;1.73;;;21.10;99.90;;;;;;5120360;27;20226;-82
2023/07/28 12:23:07;;;;;;;1.85;1.50;;;21.00;99.90;;;;;;5124899;27;20287;-82
2023/07/28 12:25:36;;;;;;;2.13;2.00;;;21.00;99.90;;;;;;5116163;27;20189;-82
2023/07/28 12:28:03;;;;;;;2.35;2.25;;;20.90;99.90;;;;;;5115375;27;20205;-82
2023/07/28 12:30:30;;;;;;;2.10;2.00;;;21.00;99.90;;;;;;5113032;27;20297;-82
2023/07/28 12:32:57;;;;;;;4.23;2.30;;;21.00;99.90;;;;;;5120236;27;20205;-82
2023/07/28 12:35:24;;;;;;;2.20;2.10;;;20.90;99.90;;;;;;5115335;27;20634;-82
2023/07/28 12:37:52;;;;;;;2.37;2.07;;;20.90;99.90;;;;;;5110878;27;20198;-82
2023/07/28 12:40:20;;;;;;;2.00;1.90;;;21.00;99.90;;;;;;5121793;27;20623;-82
2023/07/28 12:42:48;;;;;;;2.10;2.00;;;21.00;99.90;;;;;;5116425;27;20228;-82
2023/07/28 12:45:16;;;;;;;2.10;2.00;;;21.00;99.90;;;;;;5117145;27;20198;-83
2023/07/28 12:47:44;;;;;;;2.40;2.30;;;21.10;99.90;;;;;;5107182;28;20194;-82
2023/07/28 12:50:11;;;;;;;1.80;1.80;;;21.20;99.90;;;;;;5110118;27;20209;-82